Time;durP1;ratioP1;P1;durP2;ratioP2;P2;SDS_P1;SDS_P2;PMS_P1;PMS_P2;Temp;Humidity;BMP_temperature;BMP_pressure;BME280_temperature;BME280_humidity;BME280_pressure;Samples;Min_cycle;Max_cycle;Signal;HPM_P1;HPM_P2
2021/01/08 00:00:45;;;;;;;;;;;;;;;;;;5039549;28;19951;-62
2021/01/08 00:03:10;;;;;;;;;;;;;;;;;;5056043;28;20371;-63
2021/01/08 00:05:36;;;;;;;;;;;;;;;;;;5055855;28;20291;-64
2021/01/08 00:08:01;;;;;;;;;;;;;;;;;;5073877;28;20011;-63
2021/01/08 00:10:29;;;;;;;;;;;;;;;;;;5056100;28;19940;-63
2021/01/08 00:12:54;;;;;;;;;;;;;;;;;;5074175;28;19921;-62
2021/01/08 00:15:20;;;;;;;;;;;;;;;;;;5073987;28;20372;-63
2021/01/08 00:17:45;;;;;;;;;;;;;;;;;;5055628;28;20386;-62
2021/01/08 00:20:16;;;;;;;;;;;;;;;;;;5056766;28;19966;-63
2021/01/08 00:22:42;;;;;;;;;;;;;;;;;;5055459;28;19916;-63
2021/01/08 00:25:07;;;;;;;;;;;;;;;;;;5055997;28;19931;-64
2021/01/08 00:27:33;;;;;;;;;;;;;;;;;;5073747;28;19967;-63
2021/01/08 00:29:58;;;;;;;;;;;;;;;;;;5073681;28;19963;-63
2021/01/08 00:32:23;;;;;;;;;;;;;;;;;;5055658;28;20296;-63
2021/01/08 00:34:49;;;;;;;;;;;;;;;;;;5073726;28;19927;-64
2021/01/08 00:37:15;;;;;;;;;;;;;;;;;;5055166;28;20003;-64
2021/01/08 00:39:41;;;;;;;;;;;;;;;;;;5072960;28;19967;-64
2021/01/08 00:42:07;;;;;;;;;;;;;;;;;;5073059;28;19923;-64
2021/01/08 00:44:33;;;;;;;;;;;;;;;;;;5055274;28;20348;-64
2021/01/08 00:46:58;;;;;;;;;;;;;;;;;;5073222;28;19920;-64
2021/01/08 00:49:24;;;;;;;;;;;;;;;;;;5088578;28;20051;-64
2021/01/08 00:51:49;;;;;;;;;;;;;;;;;;5055246;28;20279;-64
2021/01/08 00:54:17;;;;;;;;;;;;;;;;;;5086778;28;19920;-63
2021/01/08 00:56:51;;;;;;;;;;;;;;;;;;5073036;28;20021;-63
2021/01/08 00:59:29;;;;;;;;;;;;;;;;;;5056927;28;19957;-64
2021/01/08 01:01:54;;;;;;;;;;;;;;;;;;5072978;28;20011;-63
2021/01/08 01:04:20;;;;;;;;;;;;;;;;;;5072892;28;19977;-63
2021/01/08 01:06:45;;;;;;;;;;;;;;;;;;5054707;28;20014;-63
2021/01/08 01:09:11;;;;;;;;;;;;;;;;;;5054652;28;20266;-63
2021/01/08 01:11:37;;;;;;;;;;;;;;;;;;5072545;28;20396;-63
2021/01/08 01:14:03;;;;;;;;;;;;;;;;;;5072696;28;19991;-64
2021/01/08 01:16:28;;;;;;;;;;;;;;;;;;5072805;28;19996;-63
2021/01/08 01:18:55;;;;;;;;;;;;;;;;;;5054453;28;20437;-63
2021/01/08 01:21:20;;;;;;;;;;;;;;;;;;5071974;28;19917;-63
2021/01/08 01:23:46;;;;;;;;;;;;;;;;;;5072352;28;19997;-63
2021/01/08 01:26:11;;;;;;;;;;;;;;;;;;5075544;28;19985;-64
2021/01/08 01:28:37;;;;;;;;;;;;;;;;;;5098838;28;20113;-63
2021/01/08 01:31:04;;;;;;;;;;;;;;;;;;5071717;28;19917;-63
2021/01/08 01:33:30;;;;;;;;;;;;;;;;;;5072246;28;19917;-63
2021/01/08 01:35:55;;;;;;;;;;;;;;;;;;5071749;28;20343;-63
2021/01/08 01:38:21;;;;;;;;;;;;;;;;;;5071918;28;20007;-64
2021/01/08 01:40:47;;;;;;;;;;;;;;;;;;5054090;28;19916;-63
2021/01/08 01:43:12;;;;;;;;;;;;;;;;;;5054230;28;19966;-63
2021/01/08 01:45:38;;;;;;;;;;;;;;;;;;5037212;28;19977;-63
2021/01/08 01:48:03;;;;;;;;;;;;;;;;;;5072327;28;19963;-62
2021/01/08 01:50:29;;;;;;;;;;;;;;;;;;5071661;28;19921;-63
2021/01/08 01:52:55;;;;;;;;;;;;;;;;;;5054061;28;19916;-63
2021/01/08 01:55:20;;;;;;;;;;;;;;;;;;5072270;28;20232;-63
2021/01/08 01:57:46;;;;;;;;;;;;;;;;;;5053922;28;19916;-63
2021/01/08 02:00:12;;;;;;;;;;;;;;;;;;5053910;28;19920;-62
2021/01/08 02:02:43;;;;;;;;;;;;;;;;;;5071478;28;20314;-62
2021/01/08 02:05:09;;;;;;;;;;;;;;;;;;5053799;28;19947;-62
2021/01/08 02:07:35;;;;;;;;;;;;;;;;;;5086758;28;19916;-61
2021/01/08 02:10:01;;;;;;;;;;;;;;;;;;5053574;28;20006;-62
2021/01/08 02:12:26;;;;;;;;;;;;;;;;;;5053663;28;19924;-62
2021/01/08 02:14:52;;;;;;;;;;;;;;;;;;5071504;28;19917;-63
2021/01/08 02:17:17;;;;;;;;;;;;;;;;;;5071253;28;19920;-64
2021/01/08 02:19:48;;;;;;;;;;;;;;;;;;5053811;28;20371;-62
2021/01/08 02:22:20;;;;;;;;;;;;;;;;;;5071112;28;20012;-63
2021/01/08 02:24:53;;;;;;;;;;;;;;;;;;5054632;28;19975;-63
2021/01/08 02:27:19;;;;;;;;;;;;;;;;;;5061047;28;19920;-63
2021/01/08 02:29:44;;;;;;;;;;;;;;;;;;5053138;28;20430;-63
2021/01/08 02:32:10;;;;;;;;;;;;;;;;;;5071290;28;20391;-62
2021/01/08 02:34:35;;;;;;;;;;;;;;;;;;5071387;28;20320;-62
2021/01/08 02:37:01;;;;;;;;;;;;;;;;;;5036500;28;20497;-62
2021/01/08 02:39:26;;;;;;;;;;;;;;;;;;5053036;28;19952;-62
2021/01/08 02:41:53;;;;;;;;;;;;;;;;;;5071397;28;19917;-63
2021/01/08 02:44:18;;;;;;;;;;;;;;;;;;5053142;28;19951;-63
2021/01/08 02:46:44;;;;;;;;;;;;;;;;;;5053127;28;19917;-63
2021/01/08 02:49:09;;;;;;;;;;;;;;;;;;5053240;28;20356;-64
2021/01/08 02:51:35;;;;;;;;;;;;;;;;;;5080913;28;20065;-63
2021/01/08 02:54:00;;;;;;;;;;;;;;;;;;5091264;28;20287;-64
2021/01/08 02:56:44;;;;;;;;;;;;;;;;;;5073098;28;19916;-63
2021/01/08 02:59:10;;;;;;;;;;;;;;;;;;5101135;28;19920;-63
2021/01/08 03:01:36;;;;;;;;;;;;;;;;;;5053069;28;19924;-63
2021/01/08 03:04:02;;;;;;;;;;;;;;;;;;5086961;28;19931;-63
2021/01/08 03:06:29;;;;;;;;;;;;;;;;;;5073070;28;19920;-63
2021/01/08 03:08:55;;;;;;;;;;;;;;;;;;5091886;28;19924;-64
2021/01/08 03:11:20;;;;;;;;;;;;;;;;;;5072908;28;19966;-64
2021/01/08 03:13:46;;;;;;;;;;;;;;;;;;5073252;28;19920;-64
2021/01/08 03:16:11;;;;;;;;;;;;;;;;;;5106872;28;19916;-63
2021/01/08 03:18:37;;;;;;;;;;;;;;;;;;5080057;28;19916;-63
2021/01/08 03:21:02;;;;;;;;;;;;;;;;;;5087601;28;19970;-63
2021/01/08 03:23:28;;;;;;;;;;;;;;;;;;5063717;28;20395;-64
2021/01/08 03:25:53;;;;;;;;;;;;;;;;;;5067665;28;19923;-64
2021/01/08 03:28:19;;;;;;;;;;;;;;;;;;5073455;28;19960;-64
2021/01/08 03:30:44;;;;;;;;;;;;;;;;;;5097958;28;19959;-64
2021/01/08 03:33:10;;;;;;;;;;;;;;;;;;5093563;28;19961;-63
2021/01/08 03:35:35;;;;;;;;;;;;;;;;;;5095199;28;20263;-64
2021/01/08 03:38:01;;;;;;;;;;;;;;;;;;5102219;28;19921;-63
2021/01/08 03:40:26;;;;;;;;;;;;;;;;;;5053471;28;20007;-63
2021/01/08 03:42:52;;;;;;;;;;;;;;;;;;5054413;28;19924;-63
2021/01/08 03:45:17;;;;;;;;;;;;;;;;;;5054476;28;20373;-68
2021/01/08 03:47:43;;;;;;;;;;;;;;;;;;5036690;28;20373;-63
2021/01/08 03:50:08;;;;;;;;;;;;;;;;;;5053993;28;19925;-63
2021/01/08 03:52:34;;;;;;;;;;;;;;;;;;5035978;28;20019;-63
2021/01/08 03:54:59;;;;;;;;;;;;;;;;;;5040137;28;19963;-62
2021/01/08 03:57:25;;;;;;;;;;;;;;;;;;5054062;28;19921;-63
2021/01/08 03:59:50;;;;;;;;;;;;;;;;;;5069360;28;20340;-63
2021/01/08 04:02:16;;;;;;;;;;;;;;;;;;5052668;28;19917;-64
2021/01/08 04:04:41;;;;;;;;;;;;;;;;;;5054069;28;19924;-63
2021/01/08 04:07:07;;;;;;;;;;;;;;;;;;5053425;28;20067;-64
2021/01/08 04:09:32;;;;;;;;;;;;;;;;;;5068974;28;19925;-63
2021/01/08 04:11:58;;;;;;;;;;;;;;;;;;5053452;28;19970;-63
2021/01/08 04:14:23;;;;;;;;;;;;;;;;;;5062324;28;19928;-63
2021/01/08 04:16:48;;;;;;;;;;;;;;;;;;5046468;28;19995;-64
2021/01/08 04:19:14;;;;;;;;;;;;;;;;;;5053415;28;20393;-64
2021/01/08 04:21:39;;;;;;;;;;;;;;;;;;5053229;28;19917;-63
2021/01/08 04:24:05;;;;;;;;;;;;;;;;;;5053303;28;19921;-63
2021/01/08 04:26:31;;;;;;;;;;;;;;;;;;5053375;28;19990;-63
2021/01/08 04:28:56;;;;;;;;;;;;;;;;;;5035396;28;20062;-64
2021/01/08 04:31:22;;;;;;;;;;;;;;;;;;5035747;28;19959;-63
2021/01/08 04:33:47;;;;;;;;;;;;;;;;;;5053354;28;19920;-64
2021/01/08 04:36:13;;;;;;;;;;;;;;;;;;5030480;28;19924;-63
2021/01/08 04:38:38;;;;;;;;;;;;;;;;;;5008246;28;19925;-64
2021/01/08 04:41:07;;;;;;;;;;;;;;;;;;5052865;28;19924;-63
2021/01/08 04:43:33;;;;;;;;;;;;;;;;;;5044435;28;19916;-63
2021/01/08 04:46:01;;;;;;;;;;;;;;;;;;5054949;28;20348;-63
2021/01/08 04:48:27;;;;;;;;;;;;;;;;;;5088889;28;20010;-64
2021/01/08 04:50:52;;;;;;;;;;;;;;;;;;5072536;28;19952;-63
2021/01/08 04:53:17;;;;;;;;;;;;;;;;;;5088690;28;19920;-64
2021/01/08 04:55:43;;;;;;;;;;;;;;;;;;5088467;28;19924;-63
2021/01/08 04:58:08;;;;;;;;;;;;;;;;;;5072943;28;20016;-63
2021/01/08 05:00:34;;;;;;;;;;;;;;;;;;5088069;28;19923;-63
2021/01/08 05:03:00;;;;;;;;;;;;;;;;;;5055341;28;20007;-63
2021/01/08 05:05:25;;;;;;;;;;;;;;;;;;5058796;28;19920;-63
2021/01/08 05:07:51;;;;;;;;;;;;;;;;;;5054258;28;20364;-62
2021/01/08 05:10:16;;;;;;;;;;;;;;;;;;5054694;28;20326;-63
2021/01/08 05:12:42;;;;;;;;;;;;;;;;;;5072599;28;19916;-63
2021/01/08 05:15:08;;;;;;;;;;;;;;;;;;5072559;28;20311;-63
2021/01/08 05:17:35;;;;;;;;;;;;;;;;;;5054668;28;20007;-63
2021/01/08 05:20:01;;;;;;;;;;;;;;;;;;5054588;28;20035;-63
2021/01/08 05:22:26;;;;;;;;;;;;;;;;;;5087247;28;19923;-63
2021/01/08 05:24:59;;;;;;;;;;;;;;;;;;5072292;28;19920;-63
2021/01/08 05:27:28;;;;;;;;;;;;;;;;;;5085979;28;20346;-63
2021/01/08 05:29:53;;;;;;;;;;;;;;;;;;5060777;28;19928;-63
2021/01/08 05:32:19;;;;;;;;;;;;;;;;;;5072061;28;19920;-64
2021/01/08 05:34:44;;;;;;;;;;;;;;;;;;5072179;28;19916;-65
2021/01/08 05:37:14;;;;;;;;;;;;;;;;;;5087223;28;19916;-64
2021/01/08 05:39:39;;;;;;;;;;;;;;;;;;5071696;28;20253;-63
2021/01/08 05:42:05;;;;;;;;;;;;;;;;;;5076960;28;19923;-64
2021/01/08 05:44:30;;;;;;;;;;;;;;;;;;5068618;28;19939;-63
2021/01/08 05:46:56;;;;;;;;;;;;;;;;;;5053847;28;19940;-64
2021/01/08 05:49:22;;;;;;;;;;;;;;;;;;5053465;28;20147;-64
2021/01/08 05:51:48;;;;;;;;;;;;;;;;;;5086195;28;19960;-64
2021/01/08 05:54:14;;;;;;;;;;;;;;;;;;5087281;28;19963;-64
2021/01/08 05:56:39;;;;;;;;;;;;;;;;;;5086718;28;19920;-63
2021/01/08 05:59:05;;;;;;;;;;;;;;;;;;5083029;28;19928;-64
2021/01/08 06:01:32;;;;;;;;;;;;;;;;;;5053774;28;19970;-63
2021/01/08 06:03:58;;;;;;;;;;;;;;;;;;5082241;28;20369;-64
2021/01/08 06:06:23;;;;;;;;;;;;;;;;;;5044235;28;20012;-63
2021/01/08 06:08:50;;;;;;;;;;;;;;;;;;5057391;28;20003;-63
2021/01/08 06:11:20;;;;;;;;;;;;;;;;;;5037193;28;19916;-66
2021/01/08 06:13:47;;;;;;;;;;;;;;;;;;5053360;28;19970;-62
2021/01/08 06:16:16;;;;;;;;;;;;;;;;;;5079342;28;20012;-62
2021/01/08 06:18:41;;;;;;;;;;;;;;;;;;5065529;28;19916;-63
2021/01/08 06:21:07;;;;;;;;;;;;;;;;;;5046615;28;20372;-63
2021/01/08 06:23:37;;;;;;;;;;;;;;;;;;5033623;28;19970;-63
2021/01/08 06:26:06;;;;;;;;;;;;;;;;;;5052232;28;20008;-64
2021/01/08 06:28:38;;;;;;;;;;;;;;;;;;5071691;28;19966;-64
2021/01/08 06:31:11;;;;;;;;;;;;;;;;;;5052905;28;19954;-62
2021/01/08 06:33:37;;;;;;;;;;;;;;;;;;5070136;28;19923;-62
2021/01/08 06:36:22;;;;;;;;;;;;;;;;;;5070512;28;19969;-62
2021/01/08 06:38:48;;;;;;;;;;;;;;;;;;5086721;28;20423;-64
2021/01/08 06:41:14;;;;;;;;;;;;;;;;;;5053093;28;19923;-63
2021/01/08 06:43:46;;;;;;;;;;;;;;;;;;5053221;28;19920;-63
2021/01/08 06:46:19;;;;;;;;;;;;;;;;;;5086170;28;19920;-63
2021/01/08 06:48:44;;;;;;;;;;;;;;;;;;5069733;28;19923;-63
2021/01/08 06:51:10;;;;;;;;;;;;;;;;;;5068973;28;20015;-63
2021/01/08 06:53:35;;;;;;;;;;;;;;;;;;5079185;28;20345;-63
2021/01/08 06:56:02;;;;;;;;;;;;;;;;;;5062987;28;19917;-64
2021/01/08 06:58:27;;;;;;;;;;;;;;;;;;5086490;28;19926;-64
2021/01/08 07:00:53;;;;;;;;;;;;;;;;;;5069202;28;20016;-65
2021/01/08 07:03:20;;;;;;;;;;;;;;;;;;5088660;28;19974;-64
2021/01/08 07:05:46;;;;;;;;;;;;;;;;;;5075558;28;20327;-63
2021/01/08 07:08:13;;;;;;;;;;;;;;;;;;5090580;28;20375;-65
2021/01/08 07:10:40;;;;;;;;;;;;;;;;;;5040095;28;19952;-63
2021/01/08 07:13:06;;;;;;;;;;;;;;;;;;5056899;28;19960;-64
2021/01/08 07:15:32;;;;;;;;;;;;;;;;;;5090481;28;19916;-63
2021/01/08 07:17:58;;;;;;;;;;;;;;;;;;5090294;28;20283;-64
2021/01/08 07:20:23;;;;;;;;;;;;;;;;;;5074085;28;19917;-64
2021/01/08 07:22:54;;;;;;;;;;;;;;;;;;5073012;28;19967;-64
2021/01/08 07:25:22;;;;;;;;;;;;;;;;;;5074695;28;19920;-64
2021/01/08 07:27:47;;;;;;;;;;;;;;;;;;5056606;28;20023;-63
2021/01/08 07:30:13;;;;;;;;;;;;;;;;;;5090250;28;20404;-63
2021/01/08 07:32:39;;;;;;;;;;;;;;;;;;5074213;28;19983;-64
2021/01/08 07:35:24;;;;;;;;;;;;;;;;;;5056623;28;20113;-63
2021/01/08 07:38:02;;;;;;;;;;;;;;;;;;5055847;28;20053;-64
2021/01/08 07:40:29;;;;;;;;;;;;;;;;;;5074077;28;19924;-64
2021/01/08 07:42:58;;;;;;;;;;;;;;;;;;5074196;28;19917;-64
2021/01/08 07:45:26;;;;;;;;;;;;;;;;;;5089850;28;19928;-63
2021/01/08 07:47:51;;;;;;;;;;;;;;;;;;5089368;28;19917;-64
2021/01/08 07:50:17;;;;;;;;;;;;;;;;;;5056122;28;20050;-64
2021/01/08 07:52:44;;;;;;;;;;;;;;;;;;5055382;28;20053;-63
2021/01/08 07:55:11;;;;;;;;;;;;;;;;;;5073880;28;19921;-63
2021/01/08 07:57:55;;;;;;;;;;;;;;;;;;5074100;28;19916;-64
2021/01/08 08:00:27;;;;;;;;;;;;;;;;;;5054027;28;19923;-63
2021/01/08 08:02:56;;;;;;;;;;;;;;;;;;5074116;28;19947;-63
2021/01/08 08:05:25;;;;;;;;;;;;;;;;;;5089547;28;19927;-63
2021/01/08 08:07:56;;;;;;;;;;;;;;;;;;5089150;28;19916;-63
2021/01/08 08:10:21;;;;;;;;;;;;;;;;;;5087900;28;19966;-63
2021/01/08 08:12:48;;;;;;;;;;;;;;;;;;5062403;28;20382;-63
2021/01/08 08:15:17;;;;;;;;;;;;;;;;;;5088148;28;20391;-63
2021/01/08 08:17:44;;;;;;;;;;;;;;;;;;5055417;28;20015;-63
2021/01/08 08:20:17;;;;;;;;;;;;;;;;;;5074043;28;20370;-63
2021/01/08 08:22:42;;;;;;;;;;;;;;;;;;5073372;28;20350;-64
2021/01/08 08:25:27;;;;;;;;;;;;;;;;;;5073311;28;20066;-63
2021/01/08 08:27:53;;;;;;;;;;;;;;;;;;5059128;28;19974;-63
2021/01/08 08:30:19;;;;;;;;;;;;;;;;;;5061208;28;19928;-63
2021/01/08 08:32:44;;;;;;;;;;;;;;;;;;5086308;28;19916;-64
2021/01/08 08:35:14;;;;;;;;;;;;;;;;;;5088270;28;19923;-64
2021/01/08 08:37:53;;;;;;;;;;;;;;;;;;5087828;28;20261;-66
2021/01/08 08:40:25;;;;;;;;;;;;;;;;;;5044739;28;19921;-63
2021/01/08 08:42:52;;;;;;;;;;;;;;;;;;5085430;28;19916;-64
2021/01/08 08:45:18;;;;;;;;;;;;;;;;;;5088400;28;20414;-64
2021/01/08 08:47:47;;;;;;;;;;;;;;;;;;5071962;28;20007;-63
2021/01/08 08:50:16;;;;;;;;;;;;;;;;;;5053082;28;19936;-64
2021/01/08 08:52:45;;;;;;;;;;;;;;;;;;5049561;28;19916;-63
2021/01/08 08:55:26;;;;;;;;;;;;;;;;;;5073501;28;19924;-63
2021/01/08 08:58:04;;;;;;;;;;;;;;;;;;5055224;28;19960;-63
2021/01/08 09:00:31;;;;;;;;;;;;;;;;;;5072555;28;19963;-64
2021/01/08 09:02:59;;;;;;;;;;;;;;;;;;5087844;28;19916;-62
2021/01/08 09:05:31;;;;;;;;;;;;;;;;;;5085598;28;20384;-63
2021/01/08 09:08:08;;;;;;;;;;;;;;;;;;5062306;28;19923;-63
2021/01/08 09:10:33;;;;;;;;;;;;;;;;;;5084666;28;19924;-63
2021/01/08 09:12:59;;;;;;;;;;;;;;;;;;5077624;28;19920;-63
2021/01/08 09:15:25;;;;;;;;;;;;;;;;;;5088337;28;19916;-63
2021/01/08 09:17:52;;;;;;;;;;;;;;;;;;5087788;28;19949;-64
2021/01/08 09:20:19;;;;;;;;;;;;;;;;;;5072800;28;20240;-65
2021/01/08 09:22:44;;;;;;;;;;;;;;;;;;5057672;28;19916;-64
2021/01/08 09:25:10;;;;;;;;;;;;;;;;;;5071362;28;19932;-72
2021/01/08 09:27:35;;;;;;;;;;;;;;;;;;5054783;28;19923;-70
2021/01/08 09:30:08;;;;;;;;;;;;;;;;;;5045326;28;19916;-70
2021/01/08 09:32:34;;;;;;;;;;;;;;;;;;5051592;28;19934;-69
2021/01/08 09:35:08;;;;;;;;;;;;;;;;;;5071571;28;20386;-69
2021/01/08 09:37:41;;;;;;;;;;;;;;;;;;5069182;28;20257;-69
2021/01/08 09:40:10;;;;;;;;;;;;;;;;;;5034720;28;19916;-69
2021/01/08 09:42:36;;;;;;;;;;;;;;;;;;5051531;28;20396;-69
2021/01/08 09:45:05;;;;;;;;;;;;;;;;;;5051739;28;19925;-69
2021/01/08 09:47:34;;;;;;;;;;;;;;;;;;5064690;28;19916;-70
2021/01/08 09:50:01;;;;;;;;;;;;;;;;;;5040285;28;19920;-69
2021/01/08 09:52:27;;;;;;;;;;;;;;;;;;5070952;28;19916;-69
2021/01/08 09:54:54;;;;;;;;;;;;;;;;;;5087923;28;19970;-69
2021/01/08 09:57:26;;;;;;;;;;;;;;;;;;5088182;28;19951;-69
2021/01/08 10:00:05;;;;;;;;;;;;;;;;;;5057918;28;19979;-69
2021/01/08 10:02:42;;;;;;;;;;;;;;;;;;5039006;28;20347;-68
2021/01/08 10:05:08;;;;;;;;;;;;;;;;;;5015970;28;19925;-69
2021/01/08 10:07:41;;;;;;;;;;;;;;;;;;5068703;28;19916;-70
2021/01/08 10:10:08;;;;;;;;;;;;;;;;;;5039075;28;19964;-69
2021/01/08 10:12:43;;;;;;;;;;;;;;;;;;5032475;28;19917;-70
2021/01/08 10:15:09;;;;;;;;;;;;;;;;;;5049076;28;19947;-69
2021/01/08 10:17:35;;;;;;;;;;;;;;;;;;5051607;28;19916;-70
2021/01/08 10:20:03;;;;;;;;;;;;;;;;;;5052437;28;19916;-70
2021/01/08 10:22:30;;;;;;;;;;;;;;;;;;5019564;28;19921;-70
2021/01/08 10:24:55;;;;;;;;;;;;;;;;;;5014077;28;20547;-70
2021/01/08 10:27:22;;;;;;;;;;;;;;;;;;5049158;28;19965;-70
2021/01/08 10:29:48;;;;;;;;;;;;;;;;;;5046170;28;20020;-70
2021/01/08 10:32:13;;;;;;;;;;;;;;;;;;5081438;28;19917;-68
2021/01/08 10:34:42;;;;;;;;;;;;;;;;;;5065499;28;20021;-70
2021/01/08 10:37:15;;;;;;;;;;;;;;;;;;5000331;28;19921;-69
2021/01/08 10:39:41;;;;;;;;;;;;;;;;;;5001297;28;19921;-68
2021/01/08 10:42:07;;;;;;;;;;;;;;;;;;5047560;28;19924;-69
2021/01/08 10:44:32;;;;;;;;;;;;;;;;;;5011484;28;19921;-69
2021/01/08 10:46:59;;;;;;;;;;;;;;;;;;5007079;28;19927;-69
2021/01/08 10:49:25;;;;;;;;;;;;;;;;;;5019249;28;20033;-69
2021/01/08 10:51:50;;;;;;;;;;;;;;;;;;4998576;28;19924;-69
2021/01/08 10:54:17;;;;;;;;;;;;;;;;;;5024246;28;19917;-71
2021/01/08 10:56:44;;;;;;;;;;;;;;;;;;5027425;28;20340;-72
2021/01/08 10:59:16;;;;;;;;;;;;;;;;;;5011116;28;19920;-72
2021/01/08 11:01:42;;;;;;;;;;;;;;;;;;5008215;28;19960;-70
2021/01/08 11:04:08;;;;;;;;;;;;;;;;;;5029125;28;19926;-71
2021/01/08 11:06:33;;;;;;;;;;;;;;;;;;5046558;28;20325;-71
2021/01/08 11:09:00;;;;;;;;;;;;;;;;;;5030019;28;19921;-70
2021/01/08 11:11:28;;;;;;;;;;;;;;;;;;5009512;28;19964;-70
2021/01/08 11:13:54;;;;;;;;;;;;;;;;;;5013620;28;19964;-69
2021/01/08 11:16:21;;;;;;;;;;;;;;;;;;4998111;28;19967;-69
2021/01/08 11:18:46;;;;;;;;;;;;;;;;;;5033625;28;19929;-69
2021/01/08 11:21:16;;;;;;;;;;;;;;;;;;5035234;28;20348;-71
2021/01/08 11:23:42;;;;;;;;;;;;;;;;;;5017057;28;19917;-70
2021/01/08 11:26:08;;;;;;;;;;;;;;;;;;5047212;28;19975;-70
2021/01/08 11:28:33;;;;;;;;;;;;;;;;;;5030256;28;19939;-70
2021/01/08 11:30:59;;;;;;;;;;;;;;;;;;5011815;28;19972;-71
2021/01/08 11:33:24;;;;;;;;;;;;;;;;;;5030783;28;20020;-71
2021/01/08 11:35:50;;;;;;;;;;;;;;;;;;5013212;28;19921;-71
2021/01/08 11:38:16;;;;;;;;;;;;;;;;;;5018390;28;19928;-71
2021/01/08 11:40:42;;;;;;;;;;;;;;;;;;5048882;28;19916;-71
2021/01/08 11:43:07;;;;;;;;;;;;;;;;;;5068451;28;19927;-71
2021/01/08 11:45:33;;;;;;;;;;;;;;;;;;5053269;28;20031;-71
2021/01/08 11:47:58;;;;;;;;;;;;;;;;;;5053263;28;20380;-71
2021/01/08 11:50:24;;;;;;;;;;;;;;;;;;5039170;28;19920;-70
2021/01/08 11:52:49;;;;;;;;;;;;;;;;;;5056916;28;19920;-71
2021/01/08 11:55:14;;;;;;;;;;;;;;;;;;5074090;28;19998;-71
2021/01/08 11:57:40;;;;;;;;;;;;;;;;;;5073921;28;20326;-71
2021/01/08 12:00:07;;;;;;;;;;;;;;;;;;5072876;28;19924;-71
2021/01/08 12:02:38;;;;;;;;;;;;;;;;;;5057709;28;19959;-71
2021/01/08 12:05:03;;;;;;;;;;;;;;;;;;5073284;28;19964;-71
2021/01/08 12:07:31;;;;;;;;;;;;;;;;;;5045305;28;20324;-71
2021/01/08 12:09:57;;;;;;;;;;;;;;;;;;5021483;28;19967;-71
2021/01/08 12:12:23;;;;;;;;;;;;;;;;;;5067571;28;19917;-72
2021/01/08 12:14:49;;;;;;;;;;;;;;;;;;5037203;28;19955;-72
2021/01/08 12:17:15;;;;;;;;;;;;;;;;;;5068275;28;20294;-72
2021/01/08 12:19:40;;;;;;;;;;;;;;;;;;5019957;28;19921;-72
2021/01/08 12:22:06;;;;;;;;;;;;;;;;;;5036816;28;20002;-73
2021/01/08 12:24:31;;;;;;;;;;;;;;;;;;5042804;28;19939;-72
2021/01/08 12:26:57;;;;;;;;;;;;;;;;;;5044508;28;19921;-71
2021/01/08 12:29:23;;;;;;;;;;;;;;;;;;5048245;28;19917;-72
2021/01/08 12:31:48;;;;;;;;;;;;;;;;;;5070627;28;19927;-72
2021/01/08 12:34:13;;;;;;;;;;;;;;;;;;5074169;28;20387;-71
2021/01/08 12:36:39;;;;;;;;;;;;;;;;;;5057153;28;19916;-72
2021/01/08 12:39:04;;;;;;;;;;;;;;;;;;5074640;28;19920;-71
2021/01/08 12:41:30;;;;;;;;;;;;;;;;;;5065751;28;19920;-71
2021/01/08 12:43:56;;;;;;;;;;;;;;;;;;5078591;28;19967;-72
2021/01/08 12:46:21;;;;;;;;;;;;;;;;;;5061664;28;19916;-72
2021/01/08 12:48:47;;;;;;;;;;;;;;;;;;5078356;28;20007;-72
2021/01/08 12:51:14;;;;;;;;;;;;;;;;;;5060395;28;20015;-72
2021/01/08 12:53:40;;;;;;;;;;;;;;;;;;5092011;28;19927;-72
2021/01/08 12:56:05;;;;;;;;;;;;;;;;;;5091884;28;20372;-71
2021/01/08 12:58:31;;;;;;;;;;;;;;;;;;5090596;28;19993;-72
2021/01/08 13:00:56;;;;;;;;;;;;;;;;;;5047181;28;19923;-72
2021/01/08 13:03:22;;;;;;;;;;;;;;;;;;5054089;28;19917;-72
2021/01/08 13:05:47;;;;;;;;;;;;;;;;;;5018929;28;19924;-72
2021/01/08 13:08:13;;;;;;;;;;;;;;;;;;5052466;28;19924;-71
2021/01/08 13:10:38;;;;;;;;;;;;;;;;;;5039208;28;20387;-70
2021/01/08 13:13:04;;;;;;;;;;;;;;;;;;5072959;28;19917;-71
2021/01/08 13:15:29;;;;;;;;;;;;;;;;;;5089377;28;20014;-72
2021/01/08 13:17:55;;;;;;;;;;;;;;;;;;5064706;28;19921;-72
2021/01/08 13:20:20;;;;;;;;;;;;;;;;;;5083152;28;20384;-72
2021/01/08 13:22:46;;;;;;;;;;;;;;;;;;5072052;28;19923;-72
2021/01/08 13:25:11;;;;;;;;;;;;;;;;;;5072104;28;20004;-72
2021/01/08 13:27:38;;;;;;;;;;;;;;;;;;5055648;28;19999;-72
2021/01/08 13:30:04;;;;;;;;;;;;;;;;;;5062009;28;19917;-72
2021/01/08 13:32:30;;;;;;;;;;;;;;;;;;5064359;28;19924;-72
2021/01/08 13:34:55;;;;;;;;;;;;;;;;;;5031381;28;19917;-72
2021/01/08 13:37:20;;;;;;;;;;;;;;;;;;5071015;28;19920;-72
2021/01/08 13:39:46;;;;;;;;;;;;;;;;;;5037819;28;19927;-71
2021/01/08 13:42:12;;;;;;;;;;;;;;;;;;5073122;28;19938;-71
2021/01/08 13:44:38;;;;;;;;;;;;;;;;;;5054919;28;19925;-72
2021/01/08 13:47:04;;;;;;;;;;;;;;;;;;5038476;28;20546;-72
2021/01/08 13:49:33;;;;;;;;;;;;;;;;;;5069988;28;20400;-72
2021/01/08 13:51:58;;;;;;;;;;;;;;;;;;5042587;28;19981;-73
2021/01/08 13:54:24;;;;;;;;;;;;;;;;;;5071517;28;20016;-73
2021/01/08 13:56:50;;;;;;;;;;;;;;;;;;5038478;28;19955;-72
2021/01/08 13:59:16;;;;;;;;;;;;;;;;;;5034297;28;19939;-72
2021/01/08 14:01:41;;;;;;;;;;;;;;;;;;5057473;28;19917;-71
2021/01/08 14:04:07;;;;;;;;;;;;;;;;;;5054358;28;19925;-72
2021/01/08 14:06:32;;;;;;;;;;;;;;;;;;5087619;28;19921;-71
2021/01/08 14:08:58;;;;;;;;;;;;;;;;;;5040871;28;19980;-71
2021/01/08 14:11:23;;;;;;;;;;;;;;;;;;5070953;28;19974;-71
2021/01/08 14:13:49;;;;;;;;;;;;;;;;;;5054283;28;19935;-71
2021/01/08 14:16:18;;;;;;;;;;;;;;;;;;5054804;28;19917;-71
2021/01/08 14:18:44;;;;;;;;;;;;;;;;;;5026748;28;19917;-71
2021/01/08 14:21:09;;;;;;;;;;;;;;;;;;5053993;28;20089;-71
2021/01/08 14:23:34;;;;;;;;;;;;;;;;;;5054944;28;19965;-72
2021/01/08 14:26:00;;;;;;;;;;;;;;;;;;5020850;28;19924;-71
2021/01/08 14:28:25;;;;;;;;;;;;;;;;;;5071160;28;19927;-72
2021/01/08 14:30:51;;;;;;;;;;;;;;;;;;5068501;28;19954;-72
2021/01/08 14:33:17;;;;;;;;;;;;;;;;;;5042439;28;19973;-72
2021/01/08 14:35:42;;;;;;;;;;;;;;;;;;5070228;28;20065;-72
2021/01/08 14:38:07;;;;;;;;;;;;;;;;;;5058487;28;19935;-72
2021/01/08 14:40:33;;;;;;;;;;;;;;;;;;5054539;28;20391;-73
2021/01/08 14:42:59;;;;;;;;;;;;;;;;;;5054319;28;20269;-71
2021/01/08 14:45:25;;;;;;;;;;;;;;;;;;5054518;28;19920;-71
2021/01/08 14:47:50;;;;;;;;;;;;;;;;;;5085086;28;19916;-72
2021/01/08 14:50:16;;;;;;;;;;;;;;;;;;5042994;28;19978;-72
2021/01/08 14:52:41;;;;;;;;;;;;;;;;;;5037598;28;20411;-72
2021/01/08 14:55:07;;;;;;;;;;;;;;;;;;5020342;28;19916;-72
2021/01/08 14:57:33;;;;;;;;;;;;;;;;;;5046336;28;19917;-72
2021/01/08 14:59:58;;;;;;;;;;;;;;;;;;5050167;28;20010;-72
2021/01/08 15:02:23;;;;;;;;;;;;;;;;;;5054097;28;20350;-72
2021/01/08 15:04:49;;;;;;;;;;;;;;;;;;5053933;28;19943;-72
2021/01/08 15:07:14;;;;;;;;;;;;;;;;;;5053165;28;20014;-72
2021/01/08 15:09:40;;;;;;;;;;;;;;;;;;5071798;28;19920;-73
2021/01/08 15:12:09;;;;;;;;;;;;;;;;;;5053603;28;20012;-73
2021/01/08 15:14:34;;;;;;;;;;;;;;;;;;5053488;28;20034;-73
2021/01/08 15:16:59;;;;;;;;;;;;;;;;;;5037083;28;19924;-70
2021/01/08 15:19:25;;;;;;;;;;;;;;;;;;5070441;28;19916;-71
2021/01/08 15:21:50;;;;;;;;;;;;;;;;;;5069738;28;20353;-71
2021/01/08 15:24:16;;;;;;;;;;;;;;;;;;5075171;28;19923;-72
2021/01/08 15:26:41;;;;;;;;;;;;;;;;;;5075511;28;19916;-72
2021/01/08 15:29:07;;;;;;;;;;;;;;;;;;5057876;28;20403;-72
2021/01/08 15:31:32;;;;;;;;;;;;;;;;;;5058172;28;20382;-70
2021/01/08 15:33:57;;;;;;;;;;;;;;;;;;5041582;28;19917;-71
2021/01/08 15:36:23;;;;;;;;;;;;;;;;;;5085361;28;19917;-71
2021/01/08 15:38:49;;;;;;;;;;;;;;;;;;5067706;28;20047;-71
2021/01/08 15:41:15;;;;;;;;;;;;;;;;;;5074692;28;20380;-71
2021/01/08 15:43:41;;;;;;;;;;;;;;;;;;5081597;28;19924;-72
2021/01/08 15:46:06;;;;;;;;;;;;;;;;;;5038792;28;20315;-72
2021/01/08 15:48:32;;;;;;;;;;;;;;;;;;5057699;28;20351;-71
2021/01/08 15:51:00;;;;;;;;;;;;;;;;;;5059633;28;20347;-71
2021/01/08 15:53:27;;;;;;;;;;;;;;;;;;5053768;28;19921;-71
2021/01/08 15:55:52;;;;;;;;;;;;;;;;;;5068596;28;19955;-71
2021/01/08 15:58:19;;;;;;;;;;;;;;;;;;5074710;28;20403;-71
2021/01/08 16:00:45;;;;;;;;;;;;;;;;;;5073955;28;19916;-72
2021/01/08 16:03:13;;;;;;;;;;;;;;;;;;5091578;28;19971;-72
2021/01/08 16:05:39;;;;;;;;;;;;;;;;;;5040522;28;20350;-72
2021/01/08 16:08:04;;;;;;;;;;;;;;;;;;5058809;28;19944;-71
2021/01/08 16:10:30;;;;;;;;;;;;;;;;;;5058688;28;19925;-71
2021/01/08 16:12:55;;;;;;;;;;;;;;;;;;5093521;28;19958;-70
2021/01/08 16:15:21;;;;;;;;;;;;;;;;;;5075782;28;20007;-71
2021/01/08 16:17:54;;;;;;;;;;;;;;;;;;5045826;28;19916;-71
2021/01/08 16:20:19;;;;;;;;;;;;;;;;;;5048064;28;19927;-72
2021/01/08 16:22:45;;;;;;;;;;;;;;;;;;5077585;28;20022;-71
2021/01/08 16:25:11;;;;;;;;;;;;;;;;;;5060790;28;19924;-71
2021/01/08 16:27:38;;;;;;;;;;;;;;;;;;5041954;28;19963;-70
2021/01/08 16:30:05;;;;;;;;;;;;;;;;;;5055853;28;19917;-70
2021/01/08 16:32:30;;;;;;;;;;;;;;;;;;5072105;28;19970;-70
2021/01/08 16:34:56;;;;;;;;;;;;;;;;;;5041270;28;19918;-71
2021/01/08 16:37:21;;;;;;;;;;;;;;;;;;5086841;28;19927;-70
2021/01/08 16:39:47;;;;;;;;;;;;;;;;;;5093090;28;19920;-71
2021/01/08 16:42:12;;;;;;;;;;;;;;;;;;5058910;28;19917;-72